createdAt,value
2022-12-05T00:00:40.484Z,9.661353
2022-12-05T00:01:40.530Z,9.661477
2022-12-05T00:02:40.534Z,9.661468
2022-12-05T00:03:40.645Z,9.661141
2022-12-05T00:04:40.515Z,9.661242
2022-12-05T00:05:40.464Z,9.661320
2022-12-05T00:06:40.452Z,9.661345
2022-12-05T00:07:40.492Z,9.661227
2022-12-05T00:08:40.436Z,9.661271
2022-12-05T00:09:40.487Z,9.661447
2022-12-05T00:10:40.439Z,9.661431
2022-12-05T00:11:40.426Z,9.661379
2022-12-05T00:12:40.441Z,9.661451
2022-12-05T00:13:40.419Z,9.661667
2022-12-05T00:14:40.526Z,9.661360
2022-12-05T00:15:40.418Z,9.661430
2022-12-05T00:16:40.481Z,9.661477
2022-12-05T00:17:40.453Z,9.661350
2022-12-05T00:18:40.399Z,9.660980
2022-12-05T00:19:40.368Z,9.660765
2022-12-05T00:20:40.492Z,9.660798
2022-12-05T00:21:40.381Z,9.659930
2022-12-05T00:22:40.392Z,9.659565
2022-12-05T00:23:40.365Z,9.659233
2022-12-05T00:24:40.382Z,9.658010
2022-12-05T00:25:40.452Z,9.657706
2022-12-05T00:26:40.361Z,9.656967
2022-12-05T00:27:47.878Z,9.657224
2022-12-05T00:28:40.356Z,9.659950
2022-12-05T00:29:40.308Z,9.660896
2022-12-05T00:30:40.319Z,9.661442
2022-12-05T00:31:40.535Z,9.661123
2022-12-05T00:32:40.305Z,9.661460
2022-12-05T00:33:40.329Z,9.661483
2022-12-05T00:34:40.312Z,9.661534
2022-12-05T00:35:40.319Z,9.661237
2022-12-05T00:36:40.350Z,9.661446
2022-12-05T00:37:40.311Z,9.661312
2022-12-05T00:38:40.285Z,9.661012
2022-12-05T00:39:40.262Z,9.661158
2022-12-05T00:40:40.261Z,9.661145
2022-12-05T00:41:40.311Z,9.661190
2022-12-05T00:42:40.381Z,9.661314
2022-12-05T00:43:40.241Z,9.661377
2022-12-05T00:44:40.293Z,9.661307
2022-12-05T00:45:40.328Z,9.661347
2022-12-05T00:46:40.282Z,9.661403
2022-12-05T00:47:40.241Z,9.661391
2022-12-05T00:48:40.211Z,9.661387
2022-12-05T00:49:40.246Z,9.661382
2022-12-05T00:50:40.213Z,9.661370
2022-12-05T00:51:40.201Z,9.661369
2022-12-05T00:52:40.211Z,9.661307
2022-12-05T00:53:40.311Z,9.661299
2022-12-05T00:54:40.204Z,9.661365
2022-12-05T00:55:40.201Z,9.661407
2022-12-05T00:56:40.214Z,9.661427
2022-12-05T00:57:40.181Z,9.661490
2022-12-05T00:58:40.229Z,9.661478
2022-12-05T00:59:40.166Z,9.661474
2022-12-05T01:00:40.191Z,9.661454
2022-12-05T01:01:40.307Z,9.661475
2022-12-05T01:02:40.243Z,9.661538
2022-12-05T01:03:40.150Z,9.661464
2022-12-05T01:04:40.272Z,9.661538
2022-12-05T01:05:40.156Z,9.661427
2022-12-05T01:06:40.149Z,9.661437
2022-12-05T01:07:40.156Z,9.661524
2022-12-05T01:08:40.096Z,9.661565
2022-12-05T01:09:40.167Z,9.661571
2022-12-05T01:10:40.085Z,9.661548
2022-12-05T01:11:41.659Z,9.661516
2022-12-05T01:12:41.126Z,9.661491
2022-12-05T01:13:40.087Z,9.661472
2022-12-05T01:14:40.086Z,9.661506
2022-12-05T01:15:40.235Z,9.661451
2022-12-05T01:16:40.214Z,9.661512
2022-12-05T01:17:40.057Z,9.661638
2022-12-05T01:18:40.065Z,9.661798
2022-12-05T01:19:40.104Z,9.661828
2022-12-05T01:20:40.098Z,9.661666
2022-12-05T01:21:40.059Z,9.662099
2022-12-05T01:22:40.060Z,9.661973
2022-12-05T01:23:40.069Z,9.660947
2022-12-05T01:24:40.055Z,9.661477
2022-12-05T01:25:40.056Z,9.661807
2022-12-05T01:26:40.071Z,9.662185
2022-12-05T01:27:40.038Z,9.662412
2022-12-05T01:28:40.123Z,9.662468
2022-12-05T01:29:40.040Z,9.662638
2022-12-05T01:30:40.034Z,9.662230
2022-12-05T01:31:40.149Z,9.662098
2022-12-05T01:32:39.996Z,9.661385
2022-12-05T01:33:40.025Z,9.661446
2022-12-05T01:34:40.018Z,9.661507
2022-12-05T01:35:40.016Z,9.661603
2022-12-05T01:36:40.020Z,9.661502
2022-12-05T01:37:39.986Z,9.662029
2022-12-05T01:38:39.990Z,9.661801
2022-12-05T01:39:39.972Z,9.661552
2022-12-05T01:40:39.982Z,9.661767
2022-12-05T01:41:39.948Z,9.661633
2022-12-05T01:42:40.080Z,9.661894
2022-12-05T01:43:39.991Z,9.661525
2022-12-05T01:44:39.966Z,9.661552
2022-12-05T01:45:40.012Z,9.661647
2022-12-05T01:46:39.919Z,9.661644
2022-12-05T01:47:39.950Z,9.661469
2022-12-05T01:48:40.037Z,9.661584
2022-12-05T01:49:39.939Z,9.661538
2022-12-05T01:50:39.918Z,9.661614
2022-12-05T01:51:39.943Z,9.661590
2022-12-05T01:52:39.908Z,9.661465
2022-12-05T01:53:39.936Z,9.661507
2022-12-05T01:54:39.909Z,9.661599
2022-12-05T01:55:39.873Z,9.661714
2022-12-05T01:56:39.869Z,9.661605
2022-12-05T01:57:39.867Z,9.661562
2022-12-05T01:58:39.853Z,9.661627
2022-12-05T01:59:39.978Z,9.661400
2022-12-05T02:00:39.858Z,9.661366
2022-12-05T02:01:39.890Z,9.661478
2022-12-05T02:02:39.893Z,9.661627
2022-12-05T02:03:39.870Z,9.661490
2022-12-05T02:04:39.858Z,9.661451
2022-12-05T02:05:39.803Z,9.661425
2022-12-05T02:06:39.807Z,9.661461
2022-12-05T02:07:39.908Z,9.661371
2022-12-05T02:08:39.819Z,9.661338
2022-12-05T02:09:39.841Z,9.661383
2022-12-05T02:10:39.815Z,9.661461
2022-12-05T02:11:39.777Z,9.661493
2022-12-05T02:12:39.794Z,9.661448
2022-12-05T02:13:39.807Z,9.661482
2022-12-05T02:14:39.791Z,9.661424
2022-12-05T02:15:39.823Z,9.661371
2022-12-05T02:16:39.780Z,9.661292
2022-12-05T02:17:39.743Z,9.661249
2022-12-05T02:18:39.781Z,9.661476
2022-12-05T02:19:39.791Z,9.661455
2022-12-05T02:20:39.760Z,9.661301
2022-12-05T02:21:39.859Z,9.661276
2022-12-05T02:22:39.758Z,9.661349
2022-12-05T02:23:39.696Z,9.661366
2022-12-05T02:24:39.724Z,9.661266
2022-12-05T02:25:39.712Z,9.661336
2022-12-05T02:26:39.718Z,9.661550
2022-12-05T02:27:39.703Z,9.661582
2022-12-05T02:28:39.728Z,9.661682
2022-12-05T02:29:39.682Z,9.661523
2022-12-05T02:30:39.709Z,9.661500
2022-12-05T02:31:39.717Z,9.661439
2022-12-05T02:32:39.695Z,9.661416
2022-12-05T02:33:39.680Z,9.661301
2022-12-05T02:34:39.664Z,9.661458
2022-12-05T02:35:39.698Z,9.661710
2022-12-05T02:36:39.671Z,9.661572
2022-12-05T02:37:39.671Z,9.661693
2022-12-05T02:38:39.650Z,9.661625
2022-12-05T02:39:39.620Z,9.661512
2022-12-05T02:40:39.618Z,9.661565
2022-12-05T02:41:39.653Z,9.661469
2022-12-05T02:42:39.665Z,9.661444
2022-12-05T02:43:39.621Z,9.661437
2022-12-05T02:44:39.633Z,9.661535
2022-12-05T02:45:39.670Z,9.661465
2022-12-05T02:46:39.583Z,9.661388
2022-12-05T02:47:39.602Z,9.661485
2022-12-05T02:48:39.619Z,9.661407
2022-12-05T02:49:39.610Z,9.661653
2022-12-05T02:50:39.586Z,9.661382
2022-12-05T02:51:39.585Z,9.661250
2022-12-05T02:52:39.577Z,9.661410
2022-12-05T02:53:39.614Z,9.661456
2022-12-05T02:54:39.603Z,9.661750
2022-12-05T02:55:39.598Z,9.661659
2022-12-05T02:56:39.542Z,9.661790
2022-12-05T02:57:39.576Z,9.661839
2022-12-05T02:58:39.554Z,9.661615
2022-12-05T02:59:39.576Z,9.661501
2022-12-05T03:00:39.534Z,9.661746
2022-12-05T03:01:39.586Z,9.661581
2022-12-05T03:02:39.499Z,9.661552
2022-12-05T03:03:39.562Z,9.661630
2022-12-05T03:04:39.623Z,9.661609
2022-12-05T03:05:39.539Z,9.661407
2022-12-05T03:06:39.509Z,9.661620
2022-12-05T03:07:39.554Z,9.661575
2022-12-05T03:08:39.520Z,9.661614
2022-12-05T03:09:39.498Z,9.661465
2022-12-05T03:10:39.488Z,9.661412
2022-12-05T03:11:39.527Z,9.661470
2022-12-05T03:12:39.493Z,9.661546
2022-12-05T03:13:39.468Z,9.661528
2022-12-05T03:14:39.494Z,9.661512
2022-12-05T03:15:39.502Z,9.661549
2022-12-05T03:16:39.509Z,9.661600
2022-12-05T03:17:39.487Z,9.661611
2022-12-05T03:18:39.421Z,9.661529
2022-12-05T03:19:40.463Z,9.661640
2022-12-05T03:20:39.456Z,9.661805
2022-12-05T03:21:39.458Z,9.661175
2022-12-05T03:22:39.411Z,9.661175
2022-12-05T03:23:39.442Z,9.661175
2022-12-05T03:24:39.440Z,9.661553
2022-12-05T03:25:39.405Z,9.661928
2022-12-05T03:26:39.422Z,9.661654
2022-12-05T03:27:39.403Z,9.661589
2022-12-05T03:28:39.388Z,9.661662
2022-12-05T03:29:39.390Z,9.661811
2022-12-05T03:30:39.390Z,9.661801
2022-12-05T03:31:39.396Z,9.661660
2022-12-05T03:32:39.402Z,9.661667
2022-12-05T03:33:39.379Z,9.661822
2022-12-05T03:34:39.351Z,9.662096
2022-12-05T03:35:39.340Z,9.661759
2022-12-05T03:36:39.342Z,9.661708
2022-12-05T03:37:39.370Z,9.661765
2022-12-05T03:38:39.500Z,9.661573
2022-12-05T03:39:39.327Z,9.661140
2022-12-05T03:40:39.331Z,9.661461
2022-12-05T03:41:39.328Z,9.661678
2022-12-05T03:42:39.336Z,9.661478
2022-12-05T03:43:39.344Z,9.661485
2022-12-05T03:44:39.323Z,9.661491
2022-12-05T03:45:39.394Z,9.661474
2022-12-05T03:46:39.374Z,9.661535
2022-12-05T03:47:39.290Z,9.661397
2022-12-05T03:48:39.271Z,9.661595
2022-12-05T03:49:39.392Z,9.661681
2022-12-05T03:50:39.261Z,9.661802
2022-12-05T03:51:39.255Z,9.661865
2022-12-05T03:53:11.023Z,9.661761
2022-12-05T03:53:41.304Z,9.661903
2022-12-05T03:54:39.308Z,9.661636
2022-12-05T03:55:39.269Z,9.661094
2022-12-05T03:56:39.260Z,9.661521
2022-12-05T03:57:39.241Z,9.661372
2022-12-05T03:58:39.240Z,9.661628
2022-12-05T03:59:39.218Z,9.661690
2022-12-05T04:00:39.247Z,9.662073
2022-12-05T04:01:39.234Z,9.661979
2022-12-05T04:02:39.220Z,9.661790
2022-12-05T04:03:39.778Z,9.662000
2022-12-05T04:04:39.200Z,9.662015
2022-12-05T04:05:39.273Z,9.662011
2022-12-05T04:06:39.171Z,9.661913
2022-12-05T04:07:39.234Z,9.661729
2022-12-05T04:08:39.199Z,9.661360
2022-12-05T04:09:39.155Z,9.661584
2022-12-05T04:10:39.207Z,9.661617
2022-12-05T04:11:39.207Z,9.661346
2022-12-05T04:12:39.143Z,9.661278
2022-12-05T04:13:39.149Z,9.661356
2022-12-05T04:14:39.138Z,9.661416
2022-12-05T04:15:39.250Z,9.661751
2022-12-05T04:16:39.191Z,9.661777
2022-12-05T04:17:39.151Z,9.661523
2022-12-05T04:18:39.127Z,9.661592
2022-12-05T04:19:39.113Z,9.661653
2022-12-05T04:20:39.142Z,9.661660
2022-12-05T04:21:39.143Z,9.661739
2022-12-05T04:22:39.177Z,9.661718
2022-12-05T04:23:41.441Z,9.661702
2022-12-05T04:24:39.052Z,9.661569
2022-12-05T04:25:39.095Z,9.661461
2022-12-05T04:26:39.107Z,9.661511
2022-12-05T04:27:39.254Z,9.661612
2022-12-05T04:28:39.097Z,9.661552
2022-12-05T04:29:39.035Z,9.661445
2022-12-05T04:30:39.095Z,9.661744
2022-12-05T04:31:39.106Z,9.661914
2022-12-05T04:32:39.054Z,9.661682
2022-12-05T04:33:39.187Z,9.661257
2022-12-05T04:34:39.032Z,9.661567
2022-12-05T04:35:39.047Z,9.661386
2022-12-05T04:36:39.052Z,9.661259
2022-12-05T04:37:39.038Z,9.661521
2022-12-05T04:38:39.076Z,9.661494
2022-12-05T04:39:39.018Z,9.661188
2022-12-05T04:40:38.993Z,9.661352
2022-12-05T04:41:39.029Z,9.661232
2022-12-05T04:42:39.014Z,9.660651
2022-12-05T04:43:38.999Z,9.661102
2022-12-05T04:44:39.064Z,9.661017
2022-12-05T04:45:39.019Z,9.661158
2022-12-05T04:46:39.067Z,9.661059
2022-12-05T04:47:39.001Z,9.661040
2022-12-05T04:48:39.004Z,9.661367
2022-12-05T04:49:39.018Z,9.661474
2022-12-05T04:50:39.003Z,9.661656
2022-12-05T04:51:38.978Z,9.662082
2022-12-05T04:52:38.956Z,9.661720
2022-12-05T04:53:38.955Z,9.662116
2022-12-05T04:54:38.939Z,9.661749
2022-12-05T04:55:39.078Z,9.661844
2022-12-05T04:56:38.952Z,9.661708
2022-12-05T04:57:38.903Z,9.661692
2022-12-05T04:58:38.970Z,9.661649
2022-12-05T04:59:38.924Z,9.661550
2022-12-05T05:00:38.957Z,9.661588
2022-12-05T05:01:38.983Z,9.661252
2022-12-05T05:02:38.915Z,9.661397
2022-12-05T05:03:38.902Z,9.661647
2022-12-05T05:04:38.903Z,9.661662
2022-12-05T05:05:38.945Z,9.661516
2022-12-05T05:06:38.901Z,9.661619
2022-12-05T05:07:38.974Z,9.661490
2022-12-05T05:08:38.871Z,9.661448
2022-12-05T05:09:38.868Z,9.661549
2022-12-05T05:10:38.890Z,9.661439
2022-12-05T05:11:38.928Z,9.661646
2022-12-05T05:12:38.855Z,9.661635
2022-12-05T05:13:38.871Z,9.661609
2022-12-05T05:14:38.868Z,9.661574
2022-12-05T05:15:38.944Z,9.661529
2022-12-05T05:16:38.853Z,9.661480
2022-12-05T05:17:38.839Z,9.661497
2022-12-05T05:18:38.810Z,9.661476
2022-12-05T05:19:38.852Z,9.661509
2022-12-05T05:20:38.800Z,9.661480
2022-12-05T05:21:38.771Z,9.661525
2022-12-05T05:22:39.205Z,9.661510
2022-12-05T05:23:38.796Z,9.661569
2022-12-05T05:24:38.793Z,9.661545
2022-12-05T05:25:38.806Z,9.661497
2022-12-05T05:26:38.810Z,9.661571
2022-12-05T05:27:38.762Z,9.661603
2022-12-05T05:28:38.811Z,9.661689
2022-12-05T05:29:38.735Z,9.661584
2022-12-05T05:30:38.789Z,9.661578
2022-12-05T05:31:38.835Z,9.661527
2022-12-05T05:32:38.725Z,9.661443
2022-12-05T05:33:38.834Z,9.661449
2022-12-05T05:34:38.755Z,9.661531
2022-12-05T05:35:38.718Z,9.661447
2022-12-05T05:36:38.707Z,9.661417
2022-12-05T05:37:38.722Z,9.661574
2022-12-05T05:38:38.721Z,9.661533
2022-12-05T05:39:38.735Z,9.661648
2022-12-05T05:40:38.670Z,9.661637
2022-12-05T05:41:38.725Z,9.661485
2022-12-05T05:42:38.701Z,9.661534
2022-12-05T05:43:38.678Z,9.661516
2022-12-05T05:44:38.678Z,9.661528
2022-12-05T05:45:38.703Z,9.661565
2022-12-05T05:46:38.786Z,9.661560
2022-12-05T05:47:38.702Z,9.661537
2022-12-05T05:48:38.643Z,9.661607
2022-12-05T05:49:38.664Z,9.661572
2022-12-05T05:50:38.705Z,9.661592
2022-12-05T05:51:38.640Z,9.661571
2022-12-05T05:52:38.681Z,9.661611
2022-12-05T05:53:38.660Z,9.661613
2022-12-05T05:54:38.656Z,9.661472
2022-12-05T05:55:38.649Z,9.661494
2022-12-05T05:56:38.650Z,9.661674
2022-12-05T05:57:38.717Z,9.661848
2022-12-05T05:58:38.635Z,9.661670
2022-12-05T05:59:38.629Z,9.661561
2022-12-05T06:00:38.602Z,9.661609
2022-12-05T06:01:38.626Z,9.661603
2022-12-05T06:02:38.687Z,9.661561
2022-12-05T06:03:38.730Z,9.661482
2022-12-05T06:04:38.563Z,9.661448
2022-12-05T06:05:38.583Z,9.661436
2022-12-05T06:06:38.691Z,9.661539
2022-12-05T06:07:38.623Z,9.661526
2022-12-05T06:08:38.546Z,9.661523
2022-12-05T06:09:38.560Z,9.661347
2022-12-05T06:10:38.534Z,9.661489
2022-12-05T06:11:38.560Z,9.661342
2022-12-05T06:12:38.656Z,9.661325
2022-12-05T06:13:38.531Z,9.661431
2022-12-05T06:14:38.514Z,9.661320
2022-12-05T06:15:38.518Z,9.661210
2022-12-05T06:16:38.598Z,9.661502
2022-12-05T06:17:38.527Z,9.661351
2022-12-05T06:18:38.478Z,9.661203
2022-12-05T06:19:38.499Z,9.661377
2022-12-05T06:20:38.489Z,9.661531
2022-12-05T06:21:38.514Z,9.661385
2022-12-05T06:22:38.505Z,9.661486
2022-12-05T06:23:38.581Z,9.661480
2022-12-05T06:24:38.477Z,9.661346
2022-12-05T06:25:38.475Z,9.661669
2022-12-05T06:26:38.496Z,9.661669
2022-12-05T06:27:38.488Z,9.661758
2022-12-05T06:28:38.503Z,9.661674
2022-12-05T06:29:38.461Z,9.661912
2022-12-05T06:30:38.482Z,9.661796
2022-12-05T06:31:38.494Z,9.661450
2022-12-05T06:32:38.441Z,9.661344
2022-12-05T06:33:38.460Z,9.661415
2022-12-05T06:34:38.545Z,9.661499
2022-12-05T06:35:38.439Z,9.661715
2022-12-05T06:36:38.406Z,9.661736
2022-12-05T06:37:38.411Z,9.661945
2022-12-05T06:38:42.076Z,9.661710
2022-12-05T06:39:38.433Z,9.661688
2022-12-05T06:40:38.413Z,9.661586
2022-12-05T06:41:38.388Z,9.661623
2022-12-05T06:42:38.372Z,9.661584
2022-12-05T06:43:38.381Z,9.661646
2022-12-05T06:44:38.397Z,9.661723
2022-12-05T06:45:38.484Z,9.661875
2022-12-05T06:46:38.381Z,9.662045
2022-12-05T06:47:38.355Z,9.661714
2022-12-05T06:48:38.380Z,9.661965
2022-12-05T06:49:38.456Z,9.661798
2022-12-05T06:50:38.453Z,9.662005
2022-12-05T06:51:38.325Z,9.661931
2022-12-05T06:52:38.372Z,9.661661
2022-12-05T06:53:38.369Z,9.661598
2022-12-05T06:54:38.342Z,9.661638
2022-12-05T06:55:38.305Z,9.661634
2022-12-05T06:56:38.352Z,9.661855
2022-12-05T06:57:38.338Z,9.661737
2022-12-05T06:58:38.337Z,9.661589
2022-12-05T06:59:38.304Z,9.661669
2022-12-05T07:00:38.293Z,9.661560
2022-12-05T07:01:38.355Z,9.661727
2022-12-05T07:02:38.296Z,9.661677
2022-12-05T07:03:38.284Z,9.661621
2022-12-05T07:04:38.267Z,9.661744
2022-12-05T07:05:38.265Z,9.661701
2022-12-05T07:06:38.252Z,9.661547
2022-12-05T07:07:38.341Z,9.661590
2022-12-05T07:08:38.269Z,9.661467
2022-12-05T07:09:38.261Z,9.661573
2022-12-05T07:10:38.235Z,9.661596
2022-12-05T07:11:38.208Z,9.661621
2022-12-05T07:12:38.272Z,9.661736
2022-12-05T07:13:38.207Z,9.661533
2022-12-05T07:14:53.570Z,9.661489
2022-12-05T07:15:40.202Z,9.661588
2022-12-05T07:16:38.166Z,9.661578
2022-12-05T07:17:38.169Z,9.661541
2022-12-05T07:18:38.300Z,9.661489
2022-12-05T07:19:38.190Z,9.661413
2022-12-05T07:21:10.198Z,9.661571
2022-12-05T07:21:40.145Z,9.661573
2022-12-05T07:22:38.162Z,9.661578
2022-12-05T07:23:38.187Z,9.661536
2022-12-05T07:24:38.183Z,9.661526
2022-12-05T07:25:38.360Z,9.661487
2022-12-05T07:26:38.158Z,9.661470
2022-12-05T07:27:38.164Z,9.661371
2022-12-05T07:28:38.167Z,9.661379
2022-12-05T07:29:38.220Z,9.661532
2022-12-05T07:30:38.123Z,9.661521
2022-12-05T07:31:38.165Z,9.661389
2022-12-05T07:32:38.101Z,9.661420
2022-12-05T07:33:38.116Z,9.661350
2022-12-05T07:34:38.136Z,9.661294
2022-12-05T07:35:38.109Z,9.661302
2022-12-05T07:36:38.134Z,9.661340
2022-12-05T07:37:38.118Z,9.661205
2022-12-05T07:38:38.101Z,9.661283
2022-12-05T07:39:38.080Z,9.661207
2022-12-05T07:40:38.098Z,9.661117
2022-12-05T07:41:38.065Z,9.661117
2022-12-05T07:42:38.059Z,9.661117
2022-12-05T07:43:38.058Z,9.661069
2022-12-05T07:44:38.063Z,9.661097
2022-12-05T07:45:38.270Z,9.661139
2022-12-05T07:46:38.054Z,9.661101
2022-12-05T07:47:38.100Z,9.660992
2022-12-05T07:48:38.058Z,9.661003
2022-12-05T07:49:38.021Z,9.660922
2022-12-05T07:50:38.045Z,9.661003
2022-12-05T07:51:38.136Z,9.661105
2022-12-05T07:52:38.003Z,9.660978
2022-12-05T07:53:38.021Z,9.661078
2022-12-05T07:54:37.993Z,9.660921
2022-12-05T07:55:38.000Z,9.661016
2022-12-05T07:56:40.917Z,9.661041
2022-12-05T07:57:38.976Z,9.661403
2022-12-05T07:58:37.994Z,9.661481
2022-12-05T07:59:37.975Z,9.661158
2022-12-05T08:00:37.986Z,9.661247
2022-12-05T08:01:38.029Z,9.661247
2022-12-05T08:02:40.836Z,9.661247
2022-12-05T08:03:38.935Z,9.661247
2022-12-05T08:04:37.994Z,9.661247
2022-12-05T08:05:37.933Z,9.661247
2022-12-05T08:06:37.967Z,9.661247
2022-12-05T08:07:38.112Z,9.661247
2022-12-05T08:08:37.946Z,9.660977
2022-12-05T08:09:37.935Z,9.661184
2022-12-05T08:10:37.949Z,9.661215
2022-12-05T08:11:37.910Z,9.661638
2022-12-05T08:12:37.935Z,9.661638
2022-12-05T08:13:37.912Z,9.661638
2022-12-05T08:14:37.932Z,9.661638
2022-12-05T08:15:37.902Z,9.661638
2022-12-05T08:16:37.990Z,9.661638
2022-12-05T08:17:37.928Z,9.661638
2022-12-05T08:18:38.024Z,9.661638
2022-12-05T08:19:37.874Z,9.661638
2022-12-05T08:20:37.866Z,9.661638
2022-12-05T08:21:37.861Z,9.661638
2022-12-05T08:22:37.882Z,9.661638
2022-12-05T08:23:37.860Z,9.661638
2022-12-05T08:24:37.910Z,9.661638
2022-12-05T08:25:37.824Z,9.661638
2022-12-05T08:26:37.864Z,9.661427
2022-12-05T08:27:37.831Z,9.661427
2022-12-05T08:28:37.871Z,9.661427
2022-12-05T08:29:37.858Z,9.661427
2022-12-05T08:30:37.851Z,9.661427
2022-12-05T08:31:37.802Z,9.661427
2022-12-05T08:32:37.853Z,9.661427
2022-12-05T08:33:37.827Z,9.661427
2022-12-05T08:34:37.776Z,9.661427
2022-12-05T08:35:37.807Z,9.661427
2022-12-05T08:36:37.796Z,9.661427
2022-12-05T08:37:37.788Z,9.661427
2022-12-05T08:38:37.800Z,9.661427
2022-12-05T08:39:38.924Z,9.661541
2022-12-05T08:40:37.820Z,9.661426
2022-12-05T08:41:37.773Z,9.661578
2022-12-05T08:42:37.762Z,9.661528
2022-12-05T08:43:37.728Z,9.661696
2022-12-05T08:44:37.768Z,9.661667
2022-12-05T08:45:37.761Z,9.661695
2022-12-05T08:46:37.944Z,9.661659
2022-12-05T08:47:37.719Z,9.661546
2022-12-05T08:48:37.715Z,9.661475
2022-12-05T08:49:37.726Z,9.661244
2022-12-05T08:50:37.703Z,9.661333
2022-12-05T08:51:37.731Z,9.661359
2022-12-05T08:52:37.713Z,9.661421
2022-12-05T08:53:43.891Z,9.661503
2022-12-05T08:54:39.686Z,9.661363
2022-12-05T08:55:37.691Z,9.661309
2022-12-05T08:56:37.696Z,9.661512
2022-12-05T08:57:37.795Z,9.661641
2022-12-05T08:58:37.664Z,9.661757
2022-12-05T08:59:37.679Z,9.661512
2022-12-05T09:00:37.704Z,9.661727
2022-12-05T09:01:37.736Z,9.661264
2022-12-05T09:02:37.777Z,9.661410
2022-12-05T09:03:37.666Z,9.661632
2022-12-05T09:04:37.646Z,9.661267
2022-12-05T09:05:37.604Z,9.661183
2022-12-05T09:06:37.598Z,9.661335
2022-12-05T09:07:37.732Z,9.661759
2022-12-05T09:08:37.613Z,9.661433
2022-12-05T09:09:37.634Z,9.661385
2022-12-05T09:10:37.618Z,9.661581
2022-12-05T09:11:37.578Z,9.661548
2022-12-05T09:12:37.601Z,9.661201
2022-12-05T09:13:37.613Z,9.661098
2022-12-05T09:14:37.587Z,9.661543
2022-12-05T09:15:37.637Z,9.662073
2022-12-05T09:16:39.067Z,9.661974
2022-12-05T09:17:37.602Z,9.661843
2022-12-05T09:18:37.608Z,9.662197
2022-12-05T09:19:37.679Z,9.662066
2022-12-05T09:20:37.585Z,9.661737
2022-12-05T09:21:37.594Z,9.661665
2022-12-05T09:22:37.533Z,9.661430
2022-12-05T09:23:37.549Z,9.661596
2022-12-05T09:24:37.568Z,9.661955
2022-12-05T09:25:37.540Z,9.661777
2022-12-05T09:26:37.544Z,9.662093
2022-12-05T09:27:37.523Z,9.661881
2022-12-05T09:28:37.537Z,9.661983
2022-12-05T09:29:37.528Z,9.661725
2022-12-05T09:30:37.629Z,9.661812
2022-12-05T09:31:37.577Z,9.662094
2022-12-05T09:32:37.519Z,9.662058
2022-12-05T09:33:37.460Z,9.661492
2022-12-05T09:34:37.484Z,9.661767
2022-12-05T09:35:37.473Z,9.662022
2022-12-05T09:36:37.514Z,9.661924
2022-12-05T09:37:39.657Z,9.661712
2022-12-05T09:38:38.477Z,9.661984
2022-12-05T09:39:37.491Z,9.661696
2022-12-05T09:40:37.452Z,9.661656
2022-12-05T09:41:37.458Z,9.661462
2022-12-05T09:42:37.471Z,9.661420
2022-12-05T09:43:37.434Z,9.661769
2022-12-05T09:44:37.445Z,9.661705
2022-12-05T09:45:37.439Z,9.661787
2022-12-05T09:46:37.470Z,9.661736
2022-12-05T09:47:37.439Z,9.661804
2022-12-05T09:48:37.428Z,9.661707
2022-12-05T09:49:37.401Z,9.661863
2022-12-05T09:50:37.392Z,9.661997
2022-12-05T09:51:37.399Z,9.662348
2022-12-05T09:52:37.415Z,9.662182
2022-12-05T09:53:37.387Z,9.661821
2022-12-05T09:54:37.409Z,9.661695
2022-12-05T09:55:37.401Z,9.661700
2022-12-05T09:56:37.381Z,9.661489
2022-12-05T09:57:37.403Z,9.661684
2022-12-05T09:58:37.378Z,9.661677
2022-12-05T09:59:37.362Z,9.661527
2022-12-05T10:00:37.362Z,9.661926
2022-12-05T10:01:37.394Z,9.661946
2022-12-05T10:02:37.337Z,9.661942
2022-12-05T10:03:37.447Z,9.661735
2022-12-05T10:04:37.389Z,9.661283
2022-12-05T10:05:37.307Z,9.661144
2022-12-05T10:06:37.314Z,9.660994
2022-12-05T10:07:37.382Z,9.660923
2022-12-05T10:08:37.346Z,9.660952
2022-12-05T10:09:37.316Z,9.660952
2022-12-05T10:10:37.312Z,9.660952
2022-12-05T10:11:37.263Z,9.661765
2022-12-05T10:12:37.325Z,9.662004
2022-12-05T10:13:37.265Z,9.661760
2022-12-05T10:14:37.323Z,9.661632
2022-12-05T10:15:37.316Z,9.661600
2022-12-05T10:16:37.294Z,9.661600
2022-12-05T10:17:37.258Z,9.661600
2022-12-05T10:18:37.274Z,9.661407
2022-12-05T10:19:37.302Z,9.661496
2022-12-05T10:20:37.232Z,9.661496
2022-12-05T10:21:37.276Z,9.661496
2022-12-05T10:22:37.229Z,9.661496
2022-12-05T10:24:38.320Z,9.661496
2022-12-05T10:25:37.200Z,9.661496
2022-12-05T10:26:37.206Z,9.661496
2022-12-05T10:27:40.404Z,9.661496
2022-12-05T10:28:37.239Z,9.661496
2022-12-05T10:29:37.199Z,9.661496
2022-12-05T10:30:37.182Z,9.661496
2022-12-05T10:31:37.213Z,9.661496
2022-12-05T10:32:37.181Z,9.661496
2022-12-05T10:33:37.165Z,9.661496
2022-12-05T10:34:37.190Z,9.661496
2022-12-05T10:35:37.300Z,9.661510
2022-12-05T10:36:37.175Z,9.661499
2022-12-05T10:37:37.137Z,9.661526
2022-12-05T10:38:37.141Z,9.661466
2022-12-05T10:39:37.155Z,9.661461
2022-12-05T10:40:37.147Z,9.661466
2022-12-05T10:41:37.134Z,9.661273
2022-12-05T10:42:37.133Z,9.661266
2022-12-05T10:43:37.115Z,9.661291
2022-12-05T10:44:37.099Z,9.661208
2022-12-05T10:45:37.128Z,9.660973
2022-12-05T10:46:37.294Z,9.660730
2022-12-05T10:47:37.122Z,9.660769
2022-12-05T10:48:37.095Z,9.660798
2022-12-05T10:49:37.094Z,9.660784
2022-12-05T10:50:37.090Z,9.660806
2022-12-05T10:51:37.887Z,9.660771
2022-12-05T10:52:38.119Z,9.660634
2022-12-05T10:53:37.070Z,9.660323
2022-12-05T10:54:37.020Z,9.660188
2022-12-05T10:55:37.069Z,9.660693
2022-12-05T10:56:37.062Z,9.660764
2022-12-05T10:57:37.073Z,9.660692
2022-12-05T10:58:37.082Z,9.660485
2022-12-05T10:59:37.044Z,9.660398
2022-12-05T11:00:37.065Z,9.660281
2022-12-05T11:01:37.082Z,9.660898
2022-12-05T11:02:37.028Z,9.660997
2022-12-05T11:03:37.160Z,9.660971
2022-12-05T11:04:37.025Z,9.661148
2022-12-05T11:05:37.048Z,9.661219
2022-12-05T11:06:37.025Z,9.661246
2022-12-05T11:07:37.102Z,9.661306
2022-12-05T11:09:03.277Z,9.661107
2022-12-05T11:09:39.026Z,9.661235
2022-12-05T11:10:36.966Z,9.661167
2022-12-05T11:11:36.981Z,9.661130
2022-12-05T11:12:36.995Z,9.661100
2022-12-05T11:13:36.968Z,9.661304
2022-12-05T11:14:36.960Z,9.661409
2022-12-05T11:15:36.952Z,9.661402
2022-12-05T11:16:37.033Z,9.661392
2022-12-05T11:17:36.942Z,9.661501
2022-12-05T11:18:36.927Z,9.661441
2022-12-05T11:19:37.014Z,9.661495
2022-12-05T11:20:36.942Z,9.661583
2022-12-05T11:21:36.909Z,9.661441
2022-12-05T11:22:36.914Z,9.661530
2022-12-05T11:23:36.907Z,9.661420
2022-12-05T11:24:36.921Z,9.661362
2022-12-05T11:25:36.956Z,9.661409
2022-12-05T11:26:36.920Z,9.661588
2022-12-05T11:27:36.854Z,9.661411
2022-12-05T11:28:36.924Z,9.661418
2022-12-05T11:29:36.893Z,9.661427
2022-12-05T11:30:36.972Z,9.661355
2022-12-05T11:31:36.872Z,9.661368
2022-12-05T11:32:36.855Z,9.661412
2022-12-05T11:33:36.855Z,9.661344
2022-12-05T11:34:36.826Z,9.661321
2022-12-05T11:35:36.852Z,9.661402
2022-12-05T11:36:36.816Z,9.661404
2022-12-05T11:37:37.838Z,9.661423
2022-12-05T11:38:36.824Z,9.661387
2022-12-05T11:39:36.845Z,9.661361
2022-12-05T11:40:38.820Z,9.661377
2022-12-05T11:41:36.954Z,9.661311
2022-12-05T11:42:36.794Z,9.661356
2022-12-05T11:43:36.829Z,9.661408
2022-12-05T11:44:36.848Z,9.661369
2022-12-05T11:45:36.760Z,9.661497